Flight Track Log - Related Links

Times and Time Zones

All times are in EDT time to prevent confusion due to time zone crossing. See the UCA3599 flight status page for this flight to view local times or setup timezone preferences in your user account.

Time Position Orientation Groundspeed Altitude Reporting Facility
EDT Latitude Longitude Course Direction KTS MPH feet Rate Location/Type
Sun 06:11:51 AM 42.2403 -76.0225 211° Southwest 138 159 3,300  Level New York Center
Sun 06:12:51 AM 42.2153 -76.0683 234° Southwest 191 220 4,300 1,100 Climbing New York Center
Sun 06:13:51 AM 42.1681 -76.1008 207° Southwest 203 234 5,500 1,200 Climbing New York Center
Sun 06:14:51 AM 42.1228 -76.1392 212° Southwest 203 234 6,700 1,300 Climbing New York Center
Sun 06:15:51 AM 42.0694 -76.1656 200° South 203 234 8,100 1,450 Climbing New York Center
Sun 06:16:51 AM 42.0117 -76.1997 204° Southwest 203 234 9,600 1,350 Climbing New York Center
Sun 06:17:00 AM 41.8397 -76.1549 211° Southwest  Level Estimated
Sun 06:17:51 AM 41.9603 -76.2292 203° Southwest 203 234 10,800  Level New York Center
Sun 06:18:51 AM 41.9133 -76.2558 203° Southwest 203 234 12,100 1,200 Climbing New York Center
Sun 06:19:51 AM 41.8533 -76.2900 203° Southwest 203 234 13,200 1,100 Climbing New York Center
Sun 06:20:51 AM 41.7978 -76.3214 203° Southwest 214 246 14,300 1,050 Climbing New York Center
Sun 06:21:51 AM 41.7422 -76.3531 203° Southwest 225 259 15,300 850 Climbing New York Center
Sun 06:22:51 AM 41.6908 -76.3819 203° Southwest 225 259 16,000 350 Climbing New York Center
Sun 06:23:51 AM 41.6244 -76.4181 202° Southwest 238 274 16,000  Level New York Center
Sun 06:24:51 AM 41.5453 -76.4642 204° Southwest 274 315 16,000  Level New York Center
Sun 06:25:51 AM 41.4725 -76.5050 203° Southwest 285 328 16,000  Level New York Center
Sun 06:26:51 AM 41.3997 -76.5431 201° Southwest 279 321 16,000  Level New York Center
Sun 06:27:51 AM 41.3356 -76.5817 204° Southwest 279 321 16,000  Level New York Center
Sun 06:28:51 AM 41.2542 -76.6244 202° Southwest 279 321 16,000  Level New York Center
Sun 06:29:51 AM 41.1833 -76.6653 203° Southwest 279 321 16,000  Level New York Center
Sun 06:30:51 AM 41.1083 -76.7111 205° Southwest 279 321 16,000  Level New York Center
Sun 06:31:51 AM 41.0375 -76.7489 202° Southwest 279 321 16,000  Level New York Center
Sun 06:32:51 AM 40.9647 -76.7892 203° Southwest 279 321 16,000  Level New York Center
Sun 06:33:51 AM 40.9003 -76.8247 203° Southwest 279 321 16,000  Level New York Center
Sun 06:34:51 AM 40.8208 -76.8697 203° Southwest 279 321 16,000  Level New York Center
Sun 06:35:51 AM 40.7464 -76.9014 198° South 279 321 16,000  Level New York Center
Sun 06:36:51 AM 40.6681 -76.9244 193° South 284 327 16,000  Level New York Center
Sun 06:37:51 AM 40.5894 -76.9503 194° South 289 333 16,000  Level New York Center
Sun 06:38:51 AM 40.5111 -76.9733 193° South 289 333 16,000  Level New York Center
Sun 06:39:51 AM 40.4328 -76.9989 194° South 289 333 16,000  Level New York Center
Sun 06:40:51 AM 40.3522 -77.0217 192° South 289 333 16,000 -250 Level New York Center
Sun 06:41:51 AM 40.2717 -77.0472 194° South 294 338 15,500 -679 Descending New York Center
Sun 06:43:30 AM 40.1333 -77.0833 191° South 315 362 14,200 -898 Descending Potomac TRACON
Sun 06:44:18 AM 40.0667 -77.1167 201° Southwest 307 353 13,300 -1,278 Descending Potomac TRACON
Sun 06:45:18 AM 39.9833 -77.1333 189° South 291 335 11,900 -1,300 Descending Potomac TRACON
Sun 06:46:18 AM 39.9167 -77.1500 191° South 278 320 10,700 -1,150 Descending Potomac TRACON
Sun 06:47:18 AM 39.8333 -77.1833 197° South 282 325 9,600 -1,000 Descending Potomac TRACON
Sun 06:48:12 AM 39.7667 -77.2000 191° South 277 319 8,800 -895 Descending Potomac TRACON
Sun 06:49:12 AM 39.6833 -77.2167 189° South 269 310 7,900 -842 Descending Potomac TRACON
Sun 06:50:06 AM 39.6500 -77.2833 237° Southwest 262 302 7,200 -737 Descending Potomac TRACON
Sun 06:51:06 AM 39.6000 -77.3333 218° Southwest 261 300 6,500 -632 Descending Potomac TRACON
Sun 06:52:00 AM 39.5333 -77.3500 191° South 261 300 6,000 -474 Descending Potomac TRACON
Sun 06:53:00 AM 39.4667 -77.3500 180° South 264 304 5,600 -650 Descending Potomac TRACON
Sun 06:54:00 AM 39.3833 -77.3667 189° South 272 313 4,700 -800 Descending Potomac TRACON
Sun 06:55:00 AM 39.3167 -77.3667 180° South 262 302 4,000 -368 Descending Potomac TRACON
Sun 06:55:54 AM 39.2500 -77.3667 180° South 248 285 4,000  Level Potomac TRACON
Sun 06:56:54 AM 39.1833 -77.3500 169° South 254 292 4,000  Level Potomac TRACON
Sun 06:58:00 AM 39.1000 -77.3500 180° South 256 295 4,000 -149 Level Potomac TRACON
Sun 06:58:55 AM 39.0333 -77.3500 180° South 259 298 3,700 -730 Descending Potomac TRACON
Sun 06:59:55 AM 38.9667 -77.3500 180° South 270 311 2,600 -895 Descending Potomac TRACON
Sun 07:00:49 AM 38.9000 -77.3500 180° South 269 310 2,000 -316 Descending Potomac TRACON
Sun 07:01:49 AM 38.8333 -77.3667 191° South 230 265 2,000  Level Potomac TRACON
Sun 07:02:49 AM 38.8167 -77.4167 247° West 187 215 2,000 -100 Level Potomac TRACON
Sun 07:03:49 AM 38.8500 -77.4333 339° North 162 186 1,800 -450 Descending Potomac TRACON
Sun 07:04:49 AM 38.8833 -77.4333 360° North 123 142 1,100 -650 Descending Potomac TRACON
Sun 07:05:49 AM 38.9167 -77.4333 360° North 116 133 500 -200 Descending Potomac TRACON
Sun 07:08:49 AM 39.0000 -77.4333 360° North 12 14 300 -67 Descending Potomac TRACON

Login

Don't have an account? Register now (free) for customized features, flight alerts, and more!